sensor_id;sensor_type;location;lat;lon;timestamp;P1;durP1;ratioP1;P2;durP2;ratioP2
20814;SDS011;10568;48.176;16.316;2022-09-20T00:00:43;1.00;;;0.70;;
20814;SDS011;10568;48.176;16.316;2022-09-20T00:03:12;0.90;;;0.90;;
20814;SDS011;10568;48.176;16.316;2022-09-20T00:05:40;1.93;;;1.00;;
20814;SDS011;10568;48.176;16.316;2022-09-20T00:08:09;2.63;;;1.03;;
20814;SDS011;10568;48.176;16.316;2022-09-20T00:10:37;1.73;;;1.00;;
20814;SDS011;10568;48.176;16.316;2022-09-20T00:13:06;0.87;;;0.80;;
20814;SDS011;10568;48.176;16.316;2022-09-20T00:15:38;1.57;;;1.17;;
20814;SDS011;10568;48.176;16.316;2022-09-20T00:18:05;2.33;;;0.90;;
20814;SDS011;10568;48.176;16.316;2022-09-20T00:20:31;1.10;;;0.80;;
20814;SDS011;10568;48.176;16.316;2022-09-20T00:22:56;1.13;;;0.80;;
20814;SDS011;10568;48.176;16.316;2022-09-20T00:25:22;1.50;;;0.80;;
20814;SDS011;10568;48.176;16.316;2022-09-20T00:27:47;1.10;;;1.00;;
20814;SDS011;10568;48.176;16.316;2022-09-20T00:30:13;1.33;;;0.90;;
20814;SDS011;10568;48.176;16.316;2022-09-20T00:32:40;0.90;;;0.70;;
20814;SDS011;10568;48.176;16.316;2022-09-20T00:35:05;1.30;;;0.90;;
20814;SDS011;10568;48.176;16.316;2022-09-20T00:37:36;2.40;;;1.00;;
20814;SDS011;10568;48.176;16.316;2022-09-20T00:40:07;2.87;;;1.03;;
20814;SDS011;10568;48.176;16.316;2022-09-20T00:42:39;1.73;;;0.83;;
20814;SDS011;10568;48.176;16.316;2022-09-20T00:53:01;0.83;;;0.77;;
20814;SDS011;10568;48.176;16.316;2022-09-20T00:55:34;1.30;;;0.93;;
20814;SDS011;10568;48.176;16.316;2022-09-20T00:58:02;2.13;;;0.80;;
20814;SDS011;10568;48.176;16.316;2022-09-20T01:00:29;1.27;;;0.90;;
20814;SDS011;10568;48.176;16.316;2022-09-20T01:02:56;2.53;;;0.80;;
20814;SDS011;10568;48.176;16.316;2022-09-20T01:05:25;1.67;;;0.60;;
20814;SDS011;10568;48.176;16.316;2022-09-20T01:07:51;2.53;;;0.97;;
20814;SDS011;10568;48.176;16.316;2022-09-20T01:10:18;1.70;;;0.87;;
20814;SDS011;10568;48.176;16.316;2022-09-20T01:12:44;1.40;;;0.80;;
20814;SDS011;10568;48.176;16.316;2022-09-20T01:15:11;1.10;;;0.80;;
20814;SDS011;10568;48.176;16.316;2022-09-20T01:17:39;1.30;;;1.03;;
20814;SDS011;10568;48.176;16.316;2022-09-20T01:28:09;1.00;;;0.90;;
20814;SDS011;10568;48.176;16.316;2022-09-20T01:30:56;1.13;;;0.80;;
20814;SDS011;10568;48.176;16.316;2022-09-20T01:33:31;1.33;;;0.83;;
20814;SDS011;10568;48.176;16.316;2022-09-20T01:36:04;1.97;;;1.00;;
20814;SDS011;10568;48.176;16.316;2022-09-20T01:42:06;1.77;;;0.83;;
20814;SDS011;10568;48.176;16.316;2022-09-20T01:50:19;1.63;;;0.90;;
20814;SDS011;10568;48.176;16.316;2022-09-20T01:56:21;1.87;;;0.77;;
20814;SDS011;10568;48.176;16.316;2022-09-20T01:59:05;1.20;;;0.80;;
20814;SDS011;10568;48.176;16.316;2022-09-20T02:02:17;1.30;;;0.83;;
20814;SDS011;10568;48.176;16.316;2022-09-20T02:12:51;0.90;;;0.60;;
20814;SDS011;10568;48.176;16.316;2022-09-20T02:18:44;1.60;;;0.90;;
20814;SDS011;10568;48.176;16.316;2022-09-20T02:23:46;1.00;;;0.80;;
20814;SDS011;10568;48.176;16.316;2022-09-20T02:32:14;0.93;;;0.83;;
20814;SDS011;10568;48.176;16.316;2022-09-20T02:46:51;0.93;;;0.73;;
20814;SDS011;10568;48.176;16.316;2022-09-20T02:55:17;1.67;;;0.93;;
20814;SDS011;10568;48.176;16.316;2022-09-20T02:58:15;1.60;;;0.80;;
20814;SDS011;10568;48.176;16.316;2022-09-20T03:01:01;1.37;;;0.70;;
20814;SDS011;10568;48.176;16.316;2022-09-20T03:03:43;1.00;;;0.70;;
20814;SDS011;10568;48.176;16.316;2022-09-20T03:09:42;1.00;;;0.80;;
20814;SDS011;10568;48.176;16.316;2022-09-20T03:15:56;0.73;;;0.70;;
20814;SDS011;10568;48.176;16.316;2022-09-20T03:18:46;2.37;;;1.00;;
20814;SDS011;10568;48.176;16.316;2022-09-20T03:24:17;0.70;;;0.70;;
20814;SDS011;10568;48.176;16.316;2022-09-20T03:35:21;1.30;;;1.10;;
20814;SDS011;10568;48.176;16.316;2022-09-20T03:41:15;1.20;;;1.00;;
20814;SDS011;10568;48.176;16.316;2022-09-20T03:52:30;1.40;;;1.20;;
20814;SDS011;10568;48.176;16.316;2022-09-20T03:57:51;1.50;;;1.20;;
20814;SDS011;10568;48.176;16.316;2022-09-20T04:00:42;1.70;;;1.00;;
20814;SDS011;10568;48.176;16.316;2022-09-20T04:17:59;1.77;;;1.20;;
20814;SDS011;10568;48.176;16.316;2022-09-20T04:20:36;2.57;;;1.10;;
20814;SDS011;10568;48.176;16.316;2022-09-20T04:26:08;1.57;;;1.10;;
20814;SDS011;10568;48.176;16.316;2022-09-20T04:28:36;1.80;;;1.03;;
20814;SDS011;10568;48.176;16.316;2022-09-20T04:31:15;1.57;;;1.13;;
20814;SDS011;10568;48.176;16.316;2022-09-20T04:33:53;3.30;;;1.20;;
20814;SDS011;10568;48.176;16.316;2022-09-20T04:47:10;1.10;;;1.00;;
20814;SDS011;10568;48.176;16.316;2022-09-20T04:58:42;1.83;;;1.20;;
20814;SDS011;10568;48.176;16.316;2022-09-20T05:10:40;1.30;;;1.17;;
20814;SDS011;10568;48.176;16.316;2022-09-20T05:13:34;1.10;;;0.97;;
20814;SDS011;10568;48.176;16.316;2022-09-20T05:31:01;1.17;;;0.90;;
20814;SDS011;10568;48.176;16.316;2022-09-20T05:33:46;1.67;;;1.10;;
20814;SDS011;10568;48.176;16.316;2022-09-20T05:39:32;2.10;;;1.30;;
20814;SDS011;10568;48.176;16.316;2022-09-20T05:47:35;1.57;;;1.10;;
20814;SDS011;10568;48.176;16.316;2022-09-20T05:59:12;1.83;;;1.37;;
20814;SDS011;10568;48.176;16.316;2022-09-20T06:04:46;2.13;;;1.17;;
20814;SDS011;10568;48.176;16.316;2022-09-20T06:16:05;2.00;;;1.40;;
20814;SDS011;10568;48.176;16.316;2022-09-20T06:27:14;1.23;;;0.93;;
20814;SDS011;10568;48.176;16.316;2022-09-20T06:29:48;2.47;;;1.23;;
20814;SDS011;10568;48.176;16.316;2022-09-20T06:32:22;1.77;;;1.17;;
20814;SDS011;10568;48.176;16.316;2022-09-20T06:34:48;1.83;;;1.43;;
20814;SDS011;10568;48.176;16.316;2022-09-20T06:37:22;2.17;;;1.07;;
20814;SDS011;10568;48.176;16.316;2022-09-20T06:40:36;1.37;;;1.20;;
20814;SDS011;10568;48.176;16.316;2022-09-20T06:43:25;2.30;;;1.10;;
20814;SDS011;10568;48.176;16.316;2022-09-20T06:45:51;2.53;;;1.10;;
20814;SDS011;10568;48.176;16.316;2022-09-20T06:48:17;2.47;;;1.23;;
20814;SDS011;10568;48.176;16.316;2022-09-20T06:50:43;2.37;;;1.20;;
20814;SDS011;10568;48.176;16.316;2022-09-20T06:53:22;2.13;;;1.30;;
20814;SDS011;10568;48.176;16.316;2022-09-20T06:55:53;2.80;;;1.20;;
20814;SDS011;10568;48.176;16.316;2022-09-20T06:58:19;1.40;;;1.30;;
20814;SDS011;10568;48.176;16.316;2022-09-20T07:00:45;1.50;;;1.10;;
20814;SDS011;10568;48.176;16.316;2022-09-20T07:03:10;2.20;;;1.43;;
20814;SDS011;10568;48.176;16.316;2022-09-20T07:05:37;1.00;;;0.90;;
20814;SDS011;10568;48.176;16.316;2022-09-20T07:08:03;1.70;;;1.20;;
20814;SDS011;10568;48.176;16.316;2022-09-20T07:10:29;1.40;;;1.10;;
20814;SDS011;10568;48.176;16.316;2022-09-20T07:12:58;1.20;;;1.00;;
20814;SDS011;10568;48.176;16.316;2022-09-20T07:15:30;1.27;;;1.10;;
20814;SDS011;10568;48.176;16.316;2022-09-20T07:17:56;1.53;;;1.10;;
20814;SDS011;10568;48.176;16.316;2022-09-20T07:20:23;0.80;;;0.80;;
20814;SDS011;10568;48.176;16.316;2022-09-20T07:22:49;1.30;;;1.17;;
20814;SDS011;10568;48.176;16.316;2022-09-20T07:25:15;1.30;;;0.77;;
20814;SDS011;10568;48.176;16.316;2022-09-20T07:27:42;1.17;;;1.07;;
20814;SDS011;10568;48.176;16.316;2022-09-20T07:30:10;1.57;;;1.03;;
20814;SDS011;10568;48.176;16.316;2022-09-20T07:32:37;1.40;;;1.00;;
20814;SDS011;10568;48.176;16.316;2022-09-20T07:35:05;1.17;;;1.07;;
20814;SDS011;10568;48.176;16.316;2022-09-20T07:37:32;1.43;;;1.10;;
20814;SDS011;10568;48.176;16.316;2022-09-20T07:39:58;1.10;;;1.00;;
20814;SDS011;10568;48.176;16.316;2022-09-20T07:42:23;1.27;;;0.97;;
20814;SDS011;10568;48.176;16.316;2022-09-20T07:44:49;1.87;;;1.20;;
20814;SDS011;10568;48.176;16.316;2022-09-20T07:47:16;1.20;;;1.10;;
20814;SDS011;10568;48.176;16.316;2022-09-20T07:49:42;1.53;;;1.10;;
20814;SDS011;10568;48.176;16.316;2022-09-20T07:52:26;1.10;;;1.00;;
20814;SDS011;10568;48.176;16.316;2022-09-20T07:54:52;1.83;;;1.30;;
20814;SDS011;10568;48.176;16.316;2022-09-20T07:57:17;2.87;;;1.30;;
20814;SDS011;10568;48.176;16.316;2022-09-20T07:59:43;3.63;;;1.30;;
20814;SDS011;10568;48.176;16.316;2022-09-20T08:02:12;1.93;;;1.30;;
20814;SDS011;10568;48.176;16.316;2022-09-20T08:04:39;1.23;;;1.07;;
20814;SDS011;10568;48.176;16.316;2022-09-20T08:07:05;1.30;;;1.00;;
20814;SDS011;10568;48.176;16.316;2022-09-20T08:09:30;3.60;;;1.23;;
20814;SDS011;10568;48.176;16.316;2022-09-20T08:11:56;1.73;;;1.40;;
20814;SDS011;10568;48.176;16.316;2022-09-20T08:14:22;1.37;;;1.20;;
20814;SDS011;10568;48.176;16.316;2022-09-20T08:16:48;1.33;;;1.20;;
20814;SDS011;10568;48.176;16.316;2022-09-20T08:19:18;1.77;;;1.10;;
20814;SDS011;10568;48.176;16.316;2022-09-20T08:21:48;3.00;;;1.70;;
20814;SDS011;10568;48.176;16.316;2022-09-20T08:24:15;1.30;;;1.10;;
20814;SDS011;10568;48.176;16.316;2022-09-20T08:26:41;2.93;;;1.10;;
20814;SDS011;10568;48.176;16.316;2022-09-20T08:29:07;1.40;;;1.30;;
20814;SDS011;10568;48.176;16.316;2022-09-20T08:31:35;1.40;;;1.30;;
20814;SDS011;10568;48.176;16.316;2022-09-20T08:37:25;1.47;;;1.20;;
20814;SDS011;10568;48.176;16.316;2022-09-20T08:39:50;1.40;;;0.90;;
20814;SDS011;10568;48.176;16.316;2022-09-20T08:42:29;1.37;;;1.17;;
20814;SDS011;10568;48.176;16.316;2022-09-20T08:44:58;1.50;;;1.23;;
20814;SDS011;10568;48.176;16.316;2022-09-20T08:47:36;1.13;;;1.03;;
20814;SDS011;10568;48.176;16.316;2022-09-20T08:50:10;1.63;;;0.93;;
20814;SDS011;10568;48.176;16.316;2022-09-20T08:56:01;1.17;;;1.07;;
20814;SDS011;10568;48.176;16.316;2022-09-20T08:58:29;2.10;;;1.27;;
20814;SDS011;10568;48.176;16.316;2022-09-20T09:00:55;1.90;;;1.17;;
20814;SDS011;10568;48.176;16.316;2022-09-20T09:03:22;1.67;;;1.10;;
20814;SDS011;10568;48.176;16.316;2022-09-20T09:05:52;1.30;;;0.90;;
20814;SDS011;10568;48.176;16.316;2022-09-20T09:08:20;1.50;;;1.10;;
20814;SDS011;10568;48.176;16.316;2022-09-20T09:16:14;2.77;;;1.30;;
20814;SDS011;10568;48.176;16.316;2022-09-20T09:18:42;0.90;;;0.77;;
20814;SDS011;10568;48.176;16.316;2022-09-20T09:21:20;1.10;;;1.00;;
20814;SDS011;10568;48.176;16.316;2022-09-20T09:23:52;1.40;;;1.07;;
20814;SDS011;10568;48.176;16.316;2022-09-20T09:26:26;2.00;;;1.30;;
20814;SDS011;10568;48.176;16.316;2022-09-20T09:31:41;1.27;;;1.07;;
20814;SDS011;10568;48.176;16.316;2022-09-20T09:34:28;2.80;;;1.40;;
20814;SDS011;10568;48.176;16.316;2022-09-20T09:36:56;1.73;;;1.13;;
20814;SDS011;10568;48.176;16.316;2022-09-20T09:41:53;2.03;;;1.27;;
20814;SDS011;10568;48.176;16.316;2022-09-20T09:44:21;1.57;;;1.10;;
20814;SDS011;10568;48.176;16.316;2022-09-20T09:46:49;2.57;;;1.03;;
20814;SDS011;10568;48.176;16.316;2022-09-20T09:49:16;0.80;;;0.70;;
20814;SDS011;10568;48.176;16.316;2022-09-20T09:54:39;1.00;;;0.67;;
20814;SDS011;10568;48.176;16.316;2022-09-20T10:00:06;0.30;;;0.30;;
20814;SDS011;10568;48.176;16.316;2022-09-20T10:02:42;0.40;;;0.40;;
20814;SDS011;10568;48.176;16.316;2022-09-20T10:22:14;1.13;;;0.57;;
20814;SDS011;10568;48.176;16.316;2022-09-20T10:30:14;1.70;;;0.80;;
20814;SDS011;10568;48.176;16.316;2022-09-20T10:49:35;0.90;;;0.30;;
20814;SDS011;10568;48.176;16.316;2022-09-20T10:52:29;0.30;;;0.30;;
20814;SDS011;10568;48.176;16.316;2022-09-20T11:00:22;1.80;;;0.47;;
20814;SDS011;10568;48.176;16.316;2022-09-20T11:06:00;0.50;;;0.33;;
20814;SDS011;10568;48.176;16.316;2022-09-20T11:08:48;1.57;;;0.50;;
20814;SDS011;10568;48.176;16.316;2022-09-20T11:11:21;0.43;;;0.43;;
20814;SDS011;10568;48.176;16.316;2022-09-20T11:14:03;2.27;;;0.53;;
20814;SDS011;10568;48.176;16.316;2022-09-20T11:16:40;1.70;;;0.60;;
20814;SDS011;10568;48.176;16.316;2022-09-20T11:22:04;1.50;;;0.40;;
20814;SDS011;10568;48.176;16.316;2022-09-20T11:25:35;1.50;;;0.47;;
20814;SDS011;10568;48.176;16.316;2022-09-20T11:30:51;2.97;;;0.43;;
20814;SDS011;10568;48.176;16.316;2022-09-20T11:33:43;0.50;;;0.30;;
20814;SDS011;10568;48.176;16.316;2022-09-20T11:36:34;0.60;;;0.30;;
20814;SDS011;10568;48.176;16.316;2022-09-20T11:42:24;1.00;;;0.30;;
20814;SDS011;10568;48.176;16.316;2022-09-20T11:44:53;0.40;;;0.30;;
20814;SDS011;10568;48.176;16.316;2022-09-20T11:47:21;0.80;;;0.40;;
20814;SDS011;10568;48.176;16.316;2022-09-20T11:55:39;1.73;;;0.50;;
20814;SDS011;10568;48.176;16.316;2022-09-20T11:58:13;0.83;;;0.63;;
20814;SDS011;10568;48.176;16.316;2022-09-20T12:00:42;0.70;;;0.50;;
20814;SDS011;10568;48.176;16.316;2022-09-20T12:05:45;0.90;;;0.50;;
20814;SDS011;10568;48.176;16.316;2022-09-20T12:08:20;1.43;;;0.60;;
20814;SDS011;10568;48.176;16.316;2022-09-20T12:10:56;0.93;;;0.70;;
20814;SDS011;10568;48.176;16.316;2022-09-20T12:13:28;0.60;;;0.60;;
20814;SDS011;10568;48.176;16.316;2022-09-20T12:16:05;1.43;;;0.67;;
20814;SDS011;10568;48.176;16.316;2022-09-20T12:21:01;0.57;;;0.53;;
20814;SDS011;10568;48.176;16.316;2022-09-20T12:36:44;1.70;;;0.90;;
20814;SDS011;10568;48.176;16.316;2022-09-20T12:39:32;1.47;;;0.50;;
20814;SDS011;10568;48.176;16.316;2022-09-20T12:42:01;1.03;;;0.63;;
20814;SDS011;10568;48.176;16.316;2022-09-20T12:47:35;1.23;;;0.63;;
20814;SDS011;10568;48.176;16.316;2022-09-20T12:50:03;0.40;;;0.40;;
20814;SDS011;10568;48.176;16.316;2022-09-20T12:52:55;0.70;;;0.50;;
20814;SDS011;10568;48.176;16.316;2022-09-20T12:55:37;0.43;;;0.40;;
20814;SDS011;10568;48.176;16.316;2022-09-20T13:08:31;1.03;;;0.60;;
20814;SDS011;10568;48.176;16.316;2022-09-20T13:13:56;0.90;;;0.60;;
20814;SDS011;10568;48.176;16.316;2022-09-20T13:16:30;1.90;;;0.50;;
20814;SDS011;10568;48.176;16.316;2022-09-20T13:19:11;0.80;;;0.60;;
20814;SDS011;10568;48.176;16.316;2022-09-20T13:21:39;1.30;;;0.80;;
20814;SDS011;10568;48.176;16.316;2022-09-20T13:24:15;2.20;;;0.73;;
20814;SDS011;10568;48.176;16.316;2022-09-20T13:26:44;1.70;;;0.60;;
20814;SDS011;10568;48.176;16.316;2022-09-20T13:32:14;1.80;;;0.50;;
20814;SDS011;10568;48.176;16.316;2022-09-20T13:34:43;0.90;;;0.50;;
20814;SDS011;10568;48.176;16.316;2022-09-20T13:37:18;1.17;;;0.43;;
20814;SDS011;10568;48.176;16.316;2022-09-20T13:39:52;0.83;;;0.50;;
20814;SDS011;10568;48.176;16.316;2022-09-20T13:42:19;0.73;;;0.47;;
20814;SDS011;10568;48.176;16.316;2022-09-20T13:44:45;0.53;;;0.50;;
20814;SDS011;10568;48.176;16.316;2022-09-20T13:47:23;0.40;;;0.40;;
20814;SDS011;10568;48.176;16.316;2022-09-20T13:50:38;0.50;;;0.40;;
20814;SDS011;10568;48.176;16.316;2022-09-20T13:52:46;0.80;;;0.40;;
20814;SDS011;10568;48.176;16.316;2022-09-20T13:57:50;0.67;;;0.40;;
20814;SDS011;10568;48.176;16.316;2022-09-20T14:00:17;0.43;;;0.40;;
20814;SDS011;10568;48.176;16.316;2022-09-20T14:02:43;0.90;;;0.47;;
20814;SDS011;10568;48.176;16.316;2022-09-20T14:05:14;0.40;;;0.40;;
20814;SDS011;10568;48.176;16.316;2022-09-20T14:07:43;1.50;;;0.60;;
20814;SDS011;10568;48.176;16.316;2022-09-20T14:10:31;1.37;;;0.40;;
20814;SDS011;10568;48.176;16.316;2022-09-20T14:13:01;0.47;;;0.30;;
20814;SDS011;10568;48.176;16.316;2022-09-20T14:15:37;0.30;;;0.30;;
20814;SDS011;10568;48.176;16.316;2022-09-20T14:18:06;0.93;;;0.30;;
20814;SDS011;10568;48.176;16.316;2022-09-20T14:20:39;0.20;;;0.20;;
20814;SDS011;10568;48.176;16.316;2022-09-20T14:23:15;0.40;;;0.40;;
20814;SDS011;10568;48.176;16.316;2022-09-20T14:26:04;0.37;;;0.30;;
20814;SDS011;10568;48.176;16.316;2022-09-20T14:28:39;0.77;;;0.30;;
20814;SDS011;10568;48.176;16.316;2022-09-20T14:31:07;0.20;;;0.20;;
20814;SDS011;10568;48.176;16.316;2022-09-20T14:33:41;0.40;;;0.30;;
20814;SDS011;10568;48.176;16.316;2022-09-20T14:36:28;0.50;;;0.30;;
20814;SDS011;10568;48.176;16.316;2022-09-20T14:39:00;0.70;;;0.40;;
20814;SDS011;10568;48.176;16.316;2022-09-20T14:41:37;1.97;;;0.50;;
20814;SDS011;10568;48.176;16.316;2022-09-20T14:44:06;0.47;;;0.47;;
20814;SDS011;10568;48.176;16.316;2022-09-20T14:46:47;0.40;;;0.33;;
20814;SDS011;10568;48.176;16.316;2022-09-20T14:51:45;0.40;;;0.40;;
20814;SDS011;10568;48.176;16.316;2022-09-20T14:56:41;0.87;;;0.40;;
20814;SDS011;10568;48.176;16.316;2022-09-20T15:01:56;1.70;;;0.40;;
20814;SDS011;10568;48.176;16.316;2022-09-20T15:04:30;0.93;;;0.40;;
20814;SDS011;10568;48.176;16.316;2022-09-20T15:07:00;0.40;;;0.40;;
20814;SDS011;10568;48.176;16.316;2022-09-20T15:09:27;0.30;;;0.30;;
20814;SDS011;10568;48.176;16.316;2022-09-20T15:14:41;0.40;;;0.30;;
20814;SDS011;10568;48.176;16.316;2022-09-20T15:17:13;0.53;;;0.30;;
20814;SDS011;10568;48.176;16.316;2022-09-20T15:19:40;0.77;;;0.60;;
20814;SDS011;10568;48.176;16.316;2022-09-20T15:22:07;1.67;;;0.50;;
20814;SDS011;10568;48.176;16.316;2022-09-20T15:24:34;0.50;;;0.40;;
20814;SDS011;10568;48.176;16.316;2022-09-20T15:26:59;0.80;;;0.40;;
20814;SDS011;10568;48.176;16.316;2022-09-20T15:29:25;0.80;;;0.60;;
20814;SDS011;10568;48.176;16.316;2022-09-20T15:31:51;1.23;;;0.37;;
20814;SDS011;10568;48.176;16.316;2022-09-20T15:34:17;0.30;;;0.30;;
20814;SDS011;10568;48.176;16.316;2022-09-20T15:36:43;0.30;;;0.30;;
20814;SDS011;10568;48.176;16.316;2022-09-20T15:39:09;0.50;;;0.40;;
20814;SDS011;10568;48.176;16.316;2022-09-20T15:41:36;0.40;;;0.40;;
20814;SDS011;10568;48.176;16.316;2022-09-20T15:44:05;0.63;;;0.50;;
20814;SDS011;10568;48.176;16.316;2022-09-20T15:46:32;0.60;;;0.40;;
20814;SDS011;10568;48.176;16.316;2022-09-20T15:48:58;0.70;;;0.30;;
20814;SDS011;10568;48.176;16.316;2022-09-20T15:51:26;0.30;;;0.30;;
20814;SDS011;10568;48.176;16.316;2022-09-20T15:56:22;0.30;;;0.30;;
20814;SDS011;10568;48.176;16.316;2022-09-20T15:58:52;0.40;;;0.30;;
20814;SDS011;10568;48.176;16.316;2022-09-20T16:01:33;0.40;;;0.40;;
20814;SDS011;10568;48.176;16.316;2022-09-20T16:04:04;0.50;;;0.40;;
20814;SDS011;10568;48.176;16.316;2022-09-20T16:06:38;1.30;;;0.67;;
20814;SDS011;10568;48.176;16.316;2022-09-20T16:09:05;0.63;;;0.50;;
20814;SDS011;10568;48.176;16.316;2022-09-20T16:11:31;1.07;;;0.43;;
20814;SDS011;10568;48.176;16.316;2022-09-20T16:13:57;0.50;;;0.50;;
20814;SDS011;10568;48.176;16.316;2022-09-20T16:16:24;0.57;;;0.50;;
20814;SDS011;10568;48.176;16.316;2022-09-20T16:18:51;0.43;;;0.40;;
20814;SDS011;10568;48.176;16.316;2022-09-20T16:21:37;0.30;;;0.30;;
20814;SDS011;10568;48.176;16.316;2022-09-20T16:24:04;0.40;;;0.40;;
20814;SDS011;10568;48.176;16.316;2022-09-20T16:26:30;1.20;;;0.40;;
20814;SDS011;10568;48.176;16.316;2022-09-20T16:28:58;0.93;;;0.40;;
20814;SDS011;10568;48.176;16.316;2022-09-20T16:36:43;0.60;;;0.40;;
20814;SDS011;10568;48.176;16.316;2022-09-20T16:39:10;0.30;;;0.30;;
20814;SDS011;10568;48.176;16.316;2022-09-20T16:41:37;0.80;;;0.50;;
20814;SDS011;10568;48.176;16.316;2022-09-20T16:44:06;0.97;;;0.60;;
20814;SDS011;10568;48.176;16.316;2022-09-20T16:46:32;0.53;;;0.40;;
20814;SDS011;10568;48.176;16.316;2022-09-20T16:49:01;0.73;;;0.50;;
20814;SDS011;10568;48.176;16.316;2022-09-20T16:51:31;0.77;;;0.60;;
20814;SDS011;10568;48.176;16.316;2022-09-20T16:54:02;1.60;;;0.40;;
20814;SDS011;10568;48.176;16.316;2022-09-20T16:56:31;0.70;;;0.50;;
20814;SDS011;10568;48.176;16.316;2022-09-20T16:58:59;0.40;;;0.40;;
20814;SDS011;10568;48.176;16.316;2022-09-20T17:01:25;0.73;;;0.50;;
20814;SDS011;10568;48.176;16.316;2022-09-20T17:03:52;0.60;;;0.50;;
20814;SDS011;10568;48.176;16.316;2022-09-20T17:06:31;0.80;;;0.70;;
20814;SDS011;10568;48.176;16.316;2022-09-20T17:08:58;0.80;;;0.53;;
20814;SDS011;10568;48.176;16.316;2022-09-20T17:11:26;0.83;;;0.73;;
20814;SDS011;10568;48.176;16.316;2022-09-20T17:13:53;1.20;;;0.50;;
20814;SDS011;10568;48.176;16.316;2022-09-20T17:16:20;1.30;;;0.73;;
20814;SDS011;10568;48.176;16.316;2022-09-20T17:18:54;1.17;;;0.50;;
20814;SDS011;10568;48.176;16.316;2022-09-20T17:21:24;1.50;;;0.70;;
20814;SDS011;10568;48.176;16.316;2022-09-20T17:23:51;2.07;;;0.70;;
20814;SDS011;10568;48.176;16.316;2022-09-20T17:26:23;2.10;;;0.80;;
20814;SDS011;10568;48.176;16.316;2022-09-20T17:31:53;1.13;;;0.67;;
20814;SDS011;10568;48.176;16.316;2022-09-20T17:34:23;4.27;;;0.90;;
20814;SDS011;10568;48.176;16.316;2022-09-20T17:36:50;1.10;;;0.77;;
20814;SDS011;10568;48.176;16.316;2022-09-20T17:39:18;2.10;;;1.00;;
20814;SDS011;10568;48.176;16.316;2022-09-20T17:41:44;1.17;;;0.90;;
20814;SDS011;10568;48.176;16.316;2022-09-20T17:44:11;0.90;;;0.87;;
20814;SDS011;10568;48.176;16.316;2022-09-20T17:46:38;0.70;;;0.70;;
20814;SDS011;10568;48.176;16.316;2022-09-20T17:49:09;1.13;;;0.80;;
20814;SDS011;10568;48.176;16.316;2022-09-20T17:51:39;1.00;;;0.70;;
20814;SDS011;10568;48.176;16.316;2022-09-20T17:54:16;1.00;;;0.70;;
20814;SDS011;10568;48.176;16.316;2022-09-20T17:56:46;1.47;;;0.70;;
20814;SDS011;10568;48.176;16.316;2022-09-20T17:59:14;1.27;;;0.80;;
20814;SDS011;10568;48.176;16.316;2022-09-20T18:01:41;0.60;;;0.60;;
20814;SDS011;10568;48.176;16.316;2022-09-20T18:04:08;0.83;;;0.73;;
20814;SDS011;10568;48.176;16.316;2022-09-20T18:06:39;1.47;;;0.67;;
20814;SDS011;10568;48.176;16.316;2022-09-20T18:09:10;1.27;;;0.90;;
20814;SDS011;10568;48.176;16.316;2022-09-20T18:11:39;1.50;;;0.90;;
20814;SDS011;10568;48.176;16.316;2022-09-20T18:14:13;1.53;;;0.63;;
20814;SDS011;10568;48.176;16.316;2022-09-20T18:16:40;1.00;;;0.70;;
20814;SDS011;10568;48.176;16.316;2022-09-20T18:19:08;1.07;;;0.67;;
20814;SDS011;10568;48.176;16.316;2022-09-20T18:21:34;0.60;;;0.60;;
20814;SDS011;10568;48.176;16.316;2022-09-20T18:24:05;1.20;;;0.80;;
20814;SDS011;10568;48.176;16.316;2022-09-20T18:26:32;0.60;;;0.50;;
20814;SDS011;10568;48.176;16.316;2022-09-20T18:29:00;1.30;;;0.77;;
20814;SDS011;10568;48.176;16.316;2022-09-20T18:31:59;0.73;;;0.70;;
20814;SDS011;10568;48.176;16.316;2022-09-20T18:34:22;0.60;;;0.50;;
20814;SDS011;10568;48.176;16.316;2022-09-20T18:36:53;0.50;;;0.50;;
20814;SDS011;10568;48.176;16.316;2022-09-20T18:39:20;1.07;;;0.67;;
20814;SDS011;10568;48.176;16.316;2022-09-20T18:41:47;0.70;;;0.50;;
20814;SDS011;10568;48.176;16.316;2022-09-20T18:44:14;0.60;;;0.60;;
20814;SDS011;10568;48.176;16.316;2022-09-20T18:46:42;1.00;;;0.60;;
20814;SDS011;10568;48.176;16.316;2022-09-20T18:49:09;1.17;;;0.90;;
20814;SDS011;10568;48.176;16.316;2022-09-20T18:51:38;0.93;;;0.70;;
20814;SDS011;10568;48.176;16.316;2022-09-20T18:54:04;0.70;;;0.60;;
20814;SDS011;10568;48.176;16.316;2022-09-20T18:56:31;1.10;;;0.67;;
20814;SDS011;10568;48.176;16.316;2022-09-20T18:58:59;1.00;;;0.60;;
20814;SDS011;10568;48.176;16.316;2022-09-20T19:04:19;0.70;;;0.70;;
20814;SDS011;10568;48.176;16.316;2022-09-20T19:07:19;1.17;;;0.80;;
20814;SDS011;10568;48.176;16.316;2022-09-20T19:09:51;1.23;;;0.80;;
20814;SDS011;10568;48.176;16.316;2022-09-20T19:12:30;0.80;;;0.77;;
20814;SDS011;10568;48.176;16.316;2022-09-20T19:18:20;0.77;;;0.60;;
20814;SDS011;10568;48.176;16.316;2022-09-20T19:26:37;0.90;;;0.70;;
20814;SDS011;10568;48.176;16.316;2022-09-20T19:29:18;1.07;;;0.80;;
20814;SDS011;10568;48.176;16.316;2022-09-20T19:31:46;0.67;;;0.63;;
20814;SDS011;10568;48.176;16.316;2022-09-20T19:34:20;1.33;;;0.70;;
20814;SDS011;10568;48.176;16.316;2022-09-20T19:50:41;2.03;;;0.90;;
20814;SDS011;10568;48.176;16.316;2022-09-20T19:53:15;1.63;;;0.70;;
20814;SDS011;10568;48.176;16.316;2022-09-20T19:55:42;0.80;;;0.70;;
20814;SDS011;10568;48.176;16.316;2022-09-20T19:58:12;1.27;;;0.73;;
20814;SDS011;10568;48.176;16.316;2022-09-20T20:00:39;1.57;;;0.77;;
20814;SDS011;10568;48.176;16.316;2022-09-20T20:03:08;1.23;;;0.60;;
20814;SDS011;10568;48.176;16.316;2022-09-20T20:05:39;0.77;;;0.70;;
20814;SDS011;10568;48.176;16.316;2022-09-20T20:08:16;0.80;;;0.70;;
20814;SDS011;10568;48.176;16.316;2022-09-20T20:13:41;1.10;;;0.70;;
20814;SDS011;10568;48.176;16.316;2022-09-20T20:22:18;0.80;;;0.60;;
20814;SDS011;10568;48.176;16.316;2022-09-20T20:24:49;1.87;;;0.80;;
20814;SDS011;10568;48.176;16.316;2022-09-20T20:27:17;0.97;;;0.87;;
20814;SDS011;10568;48.176;16.316;2022-09-20T20:29:44;0.60;;;0.60;;
20814;SDS011;10568;48.176;16.316;2022-09-20T20:32:10;0.90;;;0.50;;
20814;SDS011;10568;48.176;16.316;2022-09-20T20:34:36;1.23;;;0.90;;
20814;SDS011;10568;48.176;16.316;2022-09-20T20:37:02;0.93;;;0.60;;
20814;SDS011;10568;48.176;16.316;2022-09-20T20:39:29;0.93;;;0.70;;
20814;SDS011;10568;48.176;16.316;2022-09-20T20:41:56;1.17;;;0.60;;
20814;SDS011;10568;48.176;16.316;2022-09-20T20:44:25;0.67;;;0.60;;
20814;SDS011;10568;48.176;16.316;2022-09-20T20:46:54;0.90;;;0.70;;
20814;SDS011;10568;48.176;16.316;2022-09-20T20:49:20;0.73;;;0.50;;
20814;SDS011;10568;48.176;16.316;2022-09-20T20:51:46;1.80;;;0.60;;
20814;SDS011;10568;48.176;16.316;2022-09-20T20:54:12;0.80;;;0.63;;
20814;SDS011;10568;48.176;16.316;2022-09-20T20:56:38;0.67;;;0.60;;
20814;SDS011;10568;48.176;16.316;2022-09-20T20:59:04;1.20;;;0.67;;
20814;SDS011;10568;48.176;16.316;2022-09-20T21:01:31;1.63;;;0.60;;
20814;SDS011;10568;48.176;16.316;2022-09-20T21:04:01;0.50;;;0.50;;
20814;SDS011;10568;48.176;16.316;2022-09-20T21:06:32;0.70;;;0.60;;
20814;SDS011;10568;48.176;16.316;2022-09-20T21:08:59;1.17;;;0.80;;
20814;SDS011;10568;48.176;16.316;2022-09-20T21:11:27;2.60;;;0.77;;
20814;SDS011;10568;48.176;16.316;2022-09-20T21:13:56;0.93;;;0.60;;
20814;SDS011;10568;48.176;16.316;2022-09-20T21:16:24;0.90;;;0.67;;
20814;SDS011;10568;48.176;16.316;2022-09-20T21:18:50;1.13;;;1.00;;